Time;durP1;ratioP1;P1;durP2;ratioP2;P2;SDS_P1;SDS_P2;PMS_P1;PMS_P2;Temp;Humidity;BMP_temperature;BMP_pressure;BME280_temperature;BME280_humidity;BME280_pressure;Samples;Min_cycle;Max_cycle;Signal;HPM_P1;HPM_P2
2021/09/14 00:01:09;;;;;;;19.30;14.80;;;;;;;10.83;83.70;97480.46;116244;1179;60343;-73
2021/09/14 00:03:39;;;;;;;20.60;14.80;;;;;;;10.81;83.78;97483.30;116129;1182;60302;-73
2021/09/14 00:06:09;;;;;;;23.90;15.50;;;;;;;10.79;82.87;97488.20;116180;1179;71957;-74
2021/09/14 00:08:39;;;;;;;19.80;15.30;;;;;;;10.76;83.09;97491.12;116072;1182;68509;-74
2021/09/14 00:11:10;;;;;;;21.60;17.10;;;;;;;10.74;83.90;97489.13;116130;1185;69027;-73
2021/09/14 00:13:40;;;;;;;;;;;;;;;10.74;82.65;97490.07;116218;1185;60328;-73
2021/09/14 00:16:09;;;;;;;22.50;16.00;;;;;;;10.76;82.90;97490.35;116049;1185;60378;-72
2021/09/14 00:18:39;;;;;;;21.90;15.90;;;;;;;10.76;83.25;97488.73;116213;1179;71381;-74
2021/09/14 00:21:08;;;;;;;21.80;16.30;;;;;;;10.75;82.57;97486.64;116194;1184;69099;-72
2021/09/14 00:23:38;;;;;;;20.60;15.90;;;;;;;10.70;81.91;97481.66;116206;1179;68473;-74
2021/09/14 00:26:09;;;;;;;23.80;14.20;;;;;;;10.63;82.45;97486.85;116196;1184;60355;-75
2021/09/14 00:28:39;;;;;;;19.90;14.40;;;;;;;10.57;82.92;97490.07;116070;1184;60784;-73
2021/09/14 00:31:08;;;;;;;20.60;15.20;;;;;;;10.55;83.50;97490.84;116213;1179;72151;-73
2021/09/14 00:33:39;;;;;;;23.00;16.30;;;;;;;10.55;84.39;97492.51;116132;1184;69320;-73
2021/09/14 00:36:08;;;;;;;23.40;18.80;;;;;;;10.54;82.95;97490.80;115950;1182;69188;-73
2021/09/14 00:38:38;;;;;;;24.10;17.10;;;;;;;10.53;82.16;97491.06;116201;1180;60380;-73
2021/09/14 00:41:08;;;;;;;24.30;15.60;;;;;;;10.51;82.88;97494.45;116172;1179;60781;-72
2021/09/14 00:43:38;;;;;;;20.80;15.10;;;;;;;10.48;83.89;97493.80;116240;1179;72162;-73
2021/09/14 00:46:11;;;;;;;19.70;14.30;;;;;;;10.47;82.82;97495.75;115983;1185;69199;-71
2021/09/14 00:48:41;;;;;;;;;;;;;;;10.45;83.48;97499.67;116267;1184;68360;-71
2021/09/14 00:51:11;;;;;;;19.40;14.60;;;;;;;10.45;83.76;97493.29;116170;1179;60323;-73
2021/09/14 00:53:41;;;;;;;;;;;;;;;10.43;83.87;97493.82;116112;1184;60352;-73
2021/09/14 00:56:12;;;;;;;20.50;14.80;;;;;;;10.40;84.03;97500.59;116224;1184;71014;-71
2021/09/14 00:58:42;;;;;;;19.60;14.00;;;;;;;10.40;84.90;97501.31;116192;1183;69662;-72
2021/09/14 01:01:12;;;;;;;19.00;13.50;;;;;;;10.39;85.24;97501.11;116091;1184;69293;-74
2021/09/14 01:03:43;;;;;;;20.50;14.90;;;;;;;10.38;85.25;97500.02;116061;1182;60449;-72
2021/09/14 01:06:14;;;;;;;23.00;15.70;;;;;;;10.37;85.10;97500.91;116095;1182;60670;-73
2021/09/14 01:08:45;;;;;;;21.40;15.60;;;;;;;10.37;84.97;97504.78;116186;1180;72144;-72
2021/09/14 01:11:17;;;;;;;22.20;14.90;;;;;;;10.37;85.32;97503.67;116228;1184;69183;-73
2021/09/14 01:13:46;;;;;;;24.10;16.10;;;;;;;10.41;85.86;97504.07;116082;1182;69586;-73
2021/09/14 01:16:17;;;;;;;23.70;15.80;;;;;;;10.42;85.36;97507.61;116016;1179;60343;-71
2021/09/14 01:18:49;;;;;;;20.60;14.80;;;;;;;10.40;84.03;97507.41;116189;1184;60730;-73
2021/09/14 01:21:23;;;;;;;23.90;15.50;;;;;;;10.37;83.48;97504.94;116102;1184;72128;-73
2021/09/14 01:23:53;;;;;;;18.10;14.40;;;;;;;10.36;84.32;97503.16;116259;1184;68402;-71
2021/09/14 01:26:24;;;;;;;25.50;17.40;;;;;;;10.35;84.13;97499.95;116043;1184;69232;-73
2021/09/14 01:28:54;;;;;;;21.30;15.70;;;;;;;10.31;82.96;97495.64;116055;1184;60444;-73
2021/09/14 01:31:24;;;;;;;20.50;15.60;;;;;;;10.24;83.44;97496.77;116133;1179;60860;-73
2021/09/14 01:33:54;;;;;;;23.70;17.20;;;;;;;10.20;83.13;97496.95;116217;1181;72049;-73
2021/09/14 01:36:24;;;;;;;;;;;;;;;10.15;83.84;97498.95;116126;1184;69122;-72
2021/09/14 01:38:56;;;;;;;20.00;14.70;;;;;;;10.12;85.01;97498.50;116120;1184;69137;-72
2021/09/14 01:41:26;;;;;;;;;;;;;;;10.10;84.98;97500.68;116136;1179;60327;-73
2021/09/14 01:43:57;;;;;;;24.60;15.60;;;;;;;10.09;83.88;97502.28;116144;1184;60345;-73
2021/09/14 01:46:26;;;;;;;;;;;;;;;10.09;83.96;97501.41;116230;1182;71390;-73
2021/09/14 01:48:56;;;;;;;18.30;14.20;;;;;;;10.08;85.48;97498.93;116109;1185;69370;-73
2021/09/14 01:51:26;;;;;;;20.80;14.70;;;;;;;10.07;84.61;97498.86;116147;1184;68455;-73
2021/09/14 01:53:58;;;;;;;19.10;14.20;;;;;;;10.06;85.03;97499.98;116163;1184;60326;-72
2021/09/14 01:56:28;;;;;;;19.20;14.40;;;;;;;10.06;84.91;97496.84;116059;1184;60364;-73
2021/09/14 01:58:59;;;;;;;23.70;14.50;;;;;;;10.05;84.65;97495.91;116113;1180;72204;-73
2021/09/14 02:01:35;;;;;;;19.70;13.40;;;;;;;10.02;83.86;97498.82;116051;1182;69224;-73
2021/09/14 02:04:16;;;;;;;19.50;13.50;;;;;;;10.01;84.78;97502.55;116035;1184;68449;-73
2021/09/14 02:24:01;;;;;;;22.60;15.00;;;;;;;9.88;84.13;97512.39;116179;1179;60342;-72
2021/09/14 02:59:42;;;;;;;22.20;15.40;;;;;;;9.75;85.40;97522.27;116025;1184;69217;-72
2021/09/14 03:02:11;;;;;;;18.30;13.90;;;;;;;9.73;85.00;97519.31;116072;1184;60356;-73
2021/09/14 03:04:41;;;;;;;25.40;15.80;;;;;;;9.72;84.27;97520.46;116018;1184;59806;-72
2021/09/14 03:07:10;;;;;;;18.00;13.50;;;;;;;9.71;85.26;97522.84;115930;1184;72208;-72
2021/09/14 03:09:42;;;;;;;20.30;13.80;;;;;;;9.72;85.35;97521.40;115986;1181;69194;-73
2021/09/14 03:12:11;;;;;;;20.40;14.20;;;;;;;9.74;85.16;97518.59;116045;1180;69287;-70
2021/09/14 03:14:44;;;;;;;19.50;14.10;;;;;;;9.78;85.03;97523.07;115999;1184;60312;-73
2021/09/14 03:17:14;;;;;;;19.20;14.50;;;;;;;9.81;85.65;97526.23;116121;1182;60386;-71
2021/09/14 03:19:44;;;;;;;17.40;13.20;;;;;;;9.82;85.52;97528.17;116001;1181;71955;-73
2021/09/14 03:22:13;;;;;;;23.00;16.30;;;;;;;9.84;85.12;97530.31;116104;1179;69159;-73
2021/09/14 03:24:43;;;;;;;24.90;18.10;;;;;;;9.89;84.20;97530.14;116156;1183;68405;-72
2021/09/14 03:27:13;;;;;;;24.10;17.10;;;;;;;9.94;84.50;97533.81;115987;1181;60422;-73
2021/09/14 03:29:42;;;;;;;23.20;16.80;;;;;;;9.95;84.49;97535.04;115891;1185;60332;-73
2021/09/14 03:32:12;;;;;;;20.40;15.60;;;;;;;9.98;84.42;97540.00;116133;1184;71189;-73
2021/09/14 03:34:43;;;;;;;23.30;16.90;;;;;;;10.04;85.34;97539.33;115940;1185;68492;-73
2021/09/14 03:37:13;;;;;;;23.00;16.20;;;;;;;10.09;86.36;97539.84;116048;1184;69212;-72
2021/09/14 03:39:42;;;;;;;19.90;15.80;;;;;;;10.13;86.74;97544.70;116149;1184;60298;-73
2021/09/14 03:42:16;;;;;;;26.20;16.40;;;;;;;10.19;87.24;97545.10;116141;1182;60387;-73
2021/09/14 03:44:46;;;;;;;21.30;15.50;;;;;;;10.25;86.72;97547.29;116088;1179;71490;-74
2021/09/14 03:47:17;;;;;;;20.30;15.50;;;;;;;10.31;86.94;97545.45;116016;1179;68953;-73
2021/09/14 03:49:47;;;;;;;21.30;16.50;;;;;;;10.37;86.18;97546.54;116109;1179;69150;-73
2021/09/14 03:52:17;;;;;;;23.80;16.60;;;;;;;10.42;85.82;97548.87;116047;1181;60358;-71
2021/09/14 03:54:48;;;;;;;;;;;;;;;10.47;85.89;97549.99;116122;1182;60356;-73
2021/09/14 03:57:17;;;;;;;22.60;14.40;;;;;;;10.51;85.96;97546.26;116051;1179;70485;-71
2021/09/14 03:59:47;;;;;;;21.70;15.60;;;;;;;10.55;85.59;97547.17;116110;1179;68227;-73
2021/09/14 04:10:23;;;;;;;18.40;12.90;;;;;;;10.59;84.21;97553.47;116091;1184;71999;-72
2021/09/14 04:12:52;;;;;;;17.90;13.20;;;;;;;10.58;84.18;97556.42;116027;1184;68492;-71
2021/09/14 04:15:22;;;;;;;22.40;15.30;;;;;;;10.60;84.67;97558.69;116122;1184;69267;-71
2021/09/14 04:17:51;;;;;;;19.00;15.00;;;;;;;10.65;85.05;97559.28;115950;1184;60380;-71
2021/09/14 04:20:21;;;;;;;20.20;14.30;;;;;;;10.69;84.64;97557.64;116085;1182;60416;-73
2021/09/14 04:22:50;;;;;;;21.30;13.40;;;;;;;10.73;85.43;97557.13;116163;1184;71430;-72
2021/09/14 04:25:20;;;;;;;18.80;14.50;;;;;;;10.77;84.51;97558.83;116203;1180;68347;-71
2021/09/14 04:27:50;;;;;;;18.30;12.80;;;;;;;10.80;83.88;97561.85;116188;1179;68282;-72
2021/09/14 04:30:20;;;;;;;22.80;13.20;;;;;;;10.80;83.68;97564.14;116095;1181;60362;-70
2021/09/14 04:32:50;;;;;;;23.70;13.40;;;;;;;10.84;83.30;97568.31;116115;1182;60328;-72
2021/09/14 04:35:19;;;;;;;21.30;13.20;;;;;;;10.86;83.16;97566.43;116118;1184;71203;-70
2021/09/14 04:37:49;;;;;;;22.90;14.30;;;;;;;10.89;83.03;97564.91;116030;1182;69208;-71
2021/09/14 04:40:19;;;;;;;28.50;15.00;;;;;;;10.93;82.69;97566.29;116054;1179;69229;-72
2021/09/14 04:42:48;;;;;;;22.90;14.80;;;;;;;10.95;82.44;97565.45;116168;1184;60340;-72
2021/09/14 04:45:18;;;;;;;25.50;15.00;;;;;;;10.96;82.02;97567.97;116150;1184;60280;-71
2021/09/14 04:47:47;;;;;;;24.90;14.10;;;;;;;10.95;82.46;97570.30;116091;1181;72060;-72
2021/09/14 04:50:16;;;;;;;33.40;15.10;;;;;;;10.98;83.30;97573.27;115958;1182;68406;-72
2021/09/14 04:52:46;;;;;;;19.80;13.50;;;;;;;11.03;83.57;97578.05;116077;1184;68320;-72
2021/09/14 04:55:15;;;;;;;20.70;13.00;;;;;;;11.07;83.46;97581.17;116057;1185;60328;-72
2021/09/14 04:57:44;;;;;;;19.80;13.80;;;;;;;11.10;83.51;97581.23;116107;1184;60409;-71
2021/09/14 05:00:15;;;;;;;25.70;15.50;;;;;;;11.18;82.76;97583.08;116103;1184;71377;-72
2021/09/14 05:02:45;;;;;;;29.30;15.90;;;;;;;11.24;82.48;97588.92;116062;1181;69147;-72
2021/09/14 05:05:14;;;;;;;32.50;15.80;;;;;;;11.30;82.47;97588.75;116045;1180;68259;-72
2021/09/14 05:07:44;;;;;;;28.70;14.20;;;;;;;11.35;82.55;97589.56;116036;1181;60371;-72
2021/09/14 05:10:13;;;;;;;32.80;15.40;;;;;;;11.41;82.22;97589.22;116093;1184;60349;-72
2021/09/14 05:12:48;;;;;;;37.00;16.10;;;;;;;11.47;81.73;97589.17;116108;1184;72128;-72
2021/09/14 05:15:19;;;;;;;35.10;14.50;;;;;;;11.51;81.54;97589.16;116084;1180;68465;-73
2021/09/14 05:18:10;;;;;;;24.90;15.10;;;;;;;11.59;81.99;97586.91;115959;1184;69025;-71
2021/09/14 05:20:41;;;;;;;38.60;15.70;;;;;;;11.68;82.08;97589.33;116053;1184;60286;-70
2021/09/14 05:23:15;;;;;;;27.50;14.30;;;;;;;11.79;81.50;97588.58;115992;1185;60305;-73
2021/09/14 05:25:45;;;;;;;23.80;13.70;;;;;;;11.91;81.49;97589.54;116072;1184;72141;-73
2021/09/14 05:28:14;;;;;;;38.40;14.40;;;;;;;12.01;81.58;97592.83;116072;1184;68984;-73
2021/09/14 05:30:45;;;;;;;31.40;13.80;;;;;;;12.14;81.34;97595.11;116030;1184;68291;-74
2021/09/14 05:33:16;;;;;;;27.80;12.90;;;;;;;12.25;81.75;97594.98;115893;1180;60456;-72
2021/09/14 05:35:48;;;;;;;25.70;14.50;;;;;;;12.38;81.83;97596.75;116215;1180;60307;-70
2021/09/14 05:38:19;;;;;;;25.30;14.70;;;;;;;12.51;81.50;97601.86;116096;1184;71981;-74
2021/09/14 05:40:53;;;;;;;29.40;14.50;;;;;;;12.65;81.36;97602.42;115994;1181;68261;-73
2021/09/14 05:43:30;;;;;;;33.50;14.50;;;;;;;12.80;80.75;97602.71;116075;1184;68262;-73
2021/09/14 05:46:04;;;;;;;35.40;13.50;;;;;;;12.93;79.72;97602.56;116068;1183;60356;-74
2021/09/14 05:48:36;;;;;;;24.20;13.50;;;;;;;12.99;79.29;97603.83;116079;1184;60355;-70
2021/09/14 05:51:06;;;;;;;75.50;34.70;;;;;;;13.01;78.61;97607.03;116070;1184;72173;-71
2021/09/14 05:53:53;;;;;;;281.30;130.50;;;;;;;13.11;78.56;97599.35;116100;1180;69103;-73
2021/09/14 05:56:30;;;;;;;247.60;118.30;;;;;;;13.23;78.20;97594.66;116073;1184;69195;-71
2021/09/14 05:59:06;;;;;;;274.70;132.50;;;;;;;13.36;77.67;97599.64;115966;1184;60300;-72
2021/09/14 06:01:36;;;;;;;212.80;97.40;;;;;;;13.54;77.61;97594.98;116043;1184;60353;-70
2021/09/14 06:04:05;;;;;;;188.50;82.20;;;;;;;13.74;77.30;97597.55;115874;1184;71488;-72
2021/09/14 06:06:37;;;;;;;63.50;32.50;;;;;;;13.95;76.29;97592.02;116051;1182;69097;-70
2021/09/14 06:09:07;;;;;;;42.40;21.00;;;;;;;14.24;76.18;97592.52;116046;1184;69075;-72
2021/09/14 06:11:37;;;;;;;35.70;20.10;;;;;;;14.55;75.62;97597.86;116038;1184;60339;-71
2021/09/14 06:14:06;;;;;;;51.70;30.20;;;;;;;14.92;75.85;97598.50;116077;1184;60285;-73
2021/09/14 06:16:35;;;;;;;62.00;30.80;;;;;;;15.21;75.02;97601.27;116104;1179;72286;-71
2021/09/14 06:19:04;;;;;;;45.00;25.90;;;;;;;15.50;73.57;97598.56;116080;1181;69116;-69
2021/09/14 06:21:37;;;;;;;42.70;24.20;;;;;;;15.79;72.26;97597.50;116056;1180;69747;-72
2021/09/14 06:24:08;;;;;;;29.50;18.40;;;;;;;16.18;70.59;97595.84;116023;1184;60463;-73
2021/09/14 06:26:38;;;;;;;23.90;14.80;;;;;;;16.80;68.86;97598.88;116112;1179;60340;-72
2021/09/14 06:29:10;;;;;;;22.60;14.50;;;;;;;17.49;66.68;97598.29;116131;1184;71203;-73
2021/09/14 06:31:39;;;;;;;17.80;12.30;;;;;;;18.07;65.79;97601.64;115982;1182;69476;-74
2021/09/14 06:34:08;;;;;;;19.50;11.70;;;;;;;18.73;62.62;97603.48;116093;1181;68414;-74
2021/09/14 06:36:37;;;;;;;16.10;10.60;;;;;;;19.31;62.09;97605.83;116069;1184;60392;-74
2021/09/14 06:39:06;;;;;;;17.30;9.10;;;;;;;19.86;59.33;97605.64;116068;1179;60286;-74
2021/09/14 06:41:38;;;;;;;16.60;8.70;;;;;;;20.27;58.45;97605.83;116124;1184;72798;-74
2021/09/14 06:44:09;;;;;;;16.40;8.70;;;;;;;20.47;56.47;97609.92;116162;1179;69089;-75
2021/09/14 06:46:53;;;;;;;17.50;9.60;;;;;;;20.63;55.15;97613.59;116080;1184;68552;-72
2021/09/14 06:49:22;;;;;;;18.90;10.10;;;;;;;20.75;54.37;97612.36;116141;1184;60379;-74
2021/09/14 06:51:51;;;;;;;17.40;10.30;;;;;;;20.89;53.79;97616.05;116161;1182;60314;-74
2021/09/14 06:54:20;;;;;;;16.50;8.50;;;;;;;21.17;53.72;97612.52;116148;1184;71943;-76
2021/09/14 06:56:49;;;;;;;14.50;8.40;;;;;;;21.58;52.79;97616.92;116087;1184;69246;-76
2021/09/14 06:59:18;;;;;;;20.60;9.90;;;;;;;21.74;51.25;97619.20;116129;1184;69270;-76
2021/09/14 07:01:47;;;;;;;16.00;8.70;;;;;;;22.00;51.00;97616.39;116134;1181;60339;-74
2021/09/14 07:04:23;;;;;;;13.80;7.70;;;;;;;22.37;51.38;97621.80;116135;1184;60325;-72
2021/09/14 07:06:52;;;;;;;17.40;8.30;;;;;;;22.61;49.44;97618.56;116102;1182;72277;-76
2021/09/14 07:09:21;;;;;;;18.90;8.80;;;;;;;22.55;48.69;97616.80;116122;1179;68981;-75
2021/09/14 07:11:51;;;;;;;17.70;9.30;;;;;;;22.44;49.05;97617.64;116033;1184;68268;-75
2021/09/14 07:14:20;;;;;;;14.20;8.60;;;;;;;22.21;49.33;97622.27;116095;1180;60749;-70
2021/09/14 07:16:49;;;;;;;12.30;8.50;;;;;;;22.03;50.08;97623.41;116095;1180;60363;-73
2021/09/14 07:19:18;;;;;;;16.40;8.70;;;;;;;22.31;49.10;97622.68;116121;1184;70995;-76
2021/09/14 07:21:47;;;;;;;13.10;8.60;;;;;;;22.24;49.24;97622.46;116148;1184;69315;-73
2021/09/14 07:24:16;;;;;;;15.80;9.30;;;;;;;22.37;49.26;97626.77;116117;1180;69320;-75
2021/09/14 07:26:45;;;;;;;19.40;8.80;;;;;;;22.78;48.11;97626.11;116121;1184;60363;-77
2021/09/14 07:29:14;;;;;;;21.40;9.30;;;;;;;22.88;47.88;97623.51;116067;1184;60348;-77
2021/09/14 07:31:45;;;;;;;19.70;9.70;;;;;;;23.07;47.22;97626.43;116098;1184;72319;-77
2021/09/14 07:34:14;;;;;;;18.60;9.50;;;;;;;22.74;48.49;97630.23;116068;1184;69002;-77
2021/09/14 07:36:44;;;;;;;17.70;9.50;;;;;;;23.02;47.70;97627.00;116008;1182;69154;-77
2021/09/14 07:39:14;;;;;;;21.20;10.40;;;;;;;23.16;48.24;97631.41;115914;1185;60403;-72
2021/09/14 07:41:43;;;;;;;15.80;10.80;;;;;;;23.63;46.92;97630.36;116113;1180;60374;-77
2021/09/14 07:44:12;;;;;;;18.00;11.90;;;;;;;23.92;46.04;97634.83;116057;1184;72079;-72
2021/09/14 07:46:41;;;;;;;20.90;12.90;;;;;;;24.23;45.33;97634.57;116109;1180;69208;-78
2021/09/14 07:49:11;;;;;;;20.70;14.30;;;;;;;24.31;44.51;97632.24;116141;1184;68469;-75
2021/09/14 07:51:40;;;;;;;27.40;17.10;;;;;;;24.37;44.03;97631.46;116126;1182;60308;-77
2021/09/14 07:54:09;;;;;;;21.70;14.30;;;;;;;24.80;43.41;97632.88;116167;1179;60355;-78
2021/09/14 07:56:38;;;;;;;25.70;16.90;;;;;;;25.02;42.59;97634.33;116120;1184;71020;-76
2021/09/14 07:59:12;;;;;;;22.30;15.50;;;;;;;25.21;42.03;97628.20;116098;1180;68918;-76
2021/09/14 08:01:42;;;;;;;26.70;15.60;;;;;;;24.88;42.75;97629.95;116101;1184;68539;-78
2021/09/14 08:04:11;;;;;;;22.40;14.90;;;;;;;25.16;41.72;97626.02;115941;1184;60291;-79
2021/09/14 08:06:40;;;;;;;20.00;13.90;;;;;;;24.41;43.10;97631.94;116099;1179;60310;-80
2021/09/14 08:09:09;;;;;;;20.30;14.10;;;;;;;24.67;43.51;97632.77;116120;1184;72251;-77
2021/09/14 08:11:38;;;;;;;21.00;13.30;;;;;;;25.07;42.51;97633.56;116125;1184;69201;-77
2021/09/14 08:14:07;;;;;;;15.30;11.10;;;;;;;25.35;41.87;97627.30;116125;1184;69637;-76
2021/09/14 08:16:37;;;;;;;16.50;10.50;;;;;;;25.40;41.73;97626.42;116059;1180;60357;-79
2021/09/14 08:19:10;;;;;;;19.90;10.20;;;;;;;25.65;41.39;97624.95;116065;1184;60334;-77
2021/09/14 08:21:40;;;;;;;19.20;10.80;;;;;;;26.12;40.47;97625.48;116130;1184;71173;-75
2021/09/14 08:24:11;;;;;;;16.10;11.20;;;;;;;26.50;40.18;97618.91;116119;1184;69213;-78
2021/09/14 08:26:41;;;;;;;12.70;9.20;;;;;;;26.82;38.97;97627.20;116121;1183;69117;-75
2021/09/14 08:29:11;;;;;;;15.20;9.10;;;;;;;26.97;38.22;97621.02;116042;1182;60364;-79
2021/09/14 08:31:41;;;;;;;16.10;9.80;;;;;;;27.00;37.86;97619.08;116130;1184;60345;-77
2021/09/14 08:34:10;;;;;;;15.10;9.40;;;;;;;26.38;39.33;97618.55;116138;1184;71187;-78
2021/09/14 08:36:39;;;;;;;12.00;8.50;;;;;;;26.20;40.03;97619.95;116135;1184;68395;-70
2021/09/14 08:39:08;;;;;;;17.20;9.10;;;;;;;26.72;39.94;97617.42;116118;1184;69118;-78
2021/09/14 08:41:37;;;;;;;12.20;9.20;;;;;;;27.11;38.43;97615.10;116149;1184;60428;-77
2021/09/14 08:44:07;;;;;;;;;;;;;;;26.59;38.83;97615.50;116018;1182;60772;-75
2021/09/14 08:46:36;;;;;;;20.30;9.40;;;;;;;26.13;40.02;97608.92;116152;1184;71613;-73
2021/09/14 08:49:06;;;;;;;14.90;9.00;;;;;;;26.32;39.13;97614.34;116070;1184;68441;-74
2021/09/14 08:51:35;;;;;;;16.90;9.30;;;;;;;25.85;40.68;97617.02;116104;1181;68696;-77
2021/09/14 08:54:04;;;;;;;12.40;8.80;;;;;;;26.05;40.61;97619.38;116032;1184;60313;-76
2021/09/14 08:56:33;;;;;;;16.20;9.60;;;;;;;26.18;40.21;97612.95;116133;1180;60719;-73
2021/09/14 08:59:04;;;;;;;15.80;9.50;;;;;;;26.26;39.47;97610.95;116163;1181;70194;-74
2021/09/14 09:01:33;;;;;;;13.20;9.80;;;;;;;26.04;39.90;97613.34;116145;1179;69285;-72
2021/09/14 09:04:04;;;;;;;17.40;10.00;;;;;;;25.81;40.83;97611.55;116186;1179;69336;-77
2021/09/14 09:06:39;;;;;;;16.90;10.20;;;;;;;25.86;39.94;97611.17;116196;1182;60346;-78
2021/09/14 09:09:16;;;;;;;15.60;9.40;;;;;;;25.56;41.17;97611.40;116146;1183;60301;-76
2021/09/14 09:12:01;;;;;;;14.80;10.10;;;;;;;26.20;40.61;97608.80;116179;1184;72278;-78
2021/09/14 09:14:39;;;;;;;15.00;10.10;;;;;;;26.61;38.88;97608.59;116156;1184;69120;-76
2021/09/14 09:17:16;;;;;;;17.20;10.10;;;;;;;26.78;38.35;97606.20;116115;1184;69180;-77
2021/09/14 09:19:59;;;;;;;20.10;9.60;;;;;;;26.87;37.76;97605.59;116098;1184;60288;-76
2021/09/14 09:22:28;;;;;;;16.60;8.90;;;;;;;26.89;38.31;97602.11;116199;1182;60347;-77
2021/09/14 09:24:58;;;;;;;17.40;9.50;;;;;;;27.36;37.07;97606.25;116180;1184;70681;-77
2021/09/14 09:27:29;;;;;;;15.00;9.40;;;;;;;27.69;36.12;97598.44;116110;1181;69487;-71
2021/09/14 09:30:05;;;;;;;13.80;9.80;;;;;;;27.20;36.82;97599.27;116108;1184;69715;-72
2021/09/14 09:32:44;;;;;;;14.30;9.20;;;;;;;27.13;36.89;97600.09;116165;1181;60404;-76
2021/09/14 09:35:35;;;;;;;14.70;10.00;;;;;;;26.40;38.44;97600.40;116126;1184;60355;-76
2021/09/14 09:38:06;;;;;;;24.70;11.90;;;;;;;26.97;37.30;97597.08;116132;1184;71368;-74
2021/09/14 09:40:43;;;;;;;21.50;12.40;;;;;;;26.99;37.68;97599.34;116138;1184;68245;-73
2021/09/14 09:43:13;;;;;;;16.10;9.70;;;;;;;27.10;37.36;97598.71;116082;1180;68892;-78
2021/09/14 09:45:46;;;;;;;22.00;13.70;;;;;;;27.86;36.71;97592.73;116066;1181;60368;-79
2021/09/14 09:48:15;;;;;;;23.80;13.00;;;;;;;28.40;35.16;97590.26;116163;1181;60310;-76
2021/09/14 09:50:44;;;;;;;25.80;14.80;;;;;;;29.07;34.29;97590.36;116135;1184;72685;-71
2021/09/14 09:53:13;;;;;;;25.90;15.00;;;;;;;29.81;32.37;97588.99;116149;1184;69179;-74
2021/09/14 09:55:43;;;;;;;21.70;15.10;;;;;;;30.28;31.54;97587.19;116094;1180;68718;-71
2021/09/14 09:58:14;;;;;;;21.10;13.20;;;;;;;30.24;31.45;97583.94;116080;1184;60369;-73
2021/09/14 10:00:52;;;;;;;21.70;14.50;;;;;;;30.46;31.58;97582.72;115970;1185;60365;-71
2021/09/14 10:03:27;;;;;;;20.10;16.50;;;;;;;30.33;30.86;97581.48;116146;1179;72678;-76
2021/09/14 10:06:00;;;;;;;25.80;15.90;;;;;;;30.24;31.41;97577.31;116136;1184;69299;-73
2021/09/14 10:08:29;;;;;;;21.70;13.60;;;;;;;30.66;30.55;97573.84;116180;1184;68975;-77
2021/09/14 10:10:59;;;;;;;13.60;9.00;;;;;;;31.46;30.18;97567.79;116121;1184;60780;-74
2021/09/14 10:13:30;;;;;;;13.60;6.40;;;;;;;32.33;29.36;97561.31;116168;1181;60322;-75
2021/09/14 10:16:00;;;;;;;10.00;6.00;;;;;;;32.36;27.71;97560.55;116047;1181;72190;-70
2021/09/14 10:18:32;;;;;;;7.10;5.20;;;;;;;32.68;27.44;97557.14;116125;1184;69208;-76
2021/09/14 10:21:03;;;;;;;8.30;5.00;;;;;;;33.13;26.23;97553.41;116158;1184;69262;-77
2021/09/14 10:23:35;;;;;;;7.40;4.70;;;;;;;33.04;25.81;97550.34;116150;1182;60320;-78
2021/09/14 10:26:09;;;;;;;8.20;5.60;;;;;;;33.45;25.21;97550.09;116115;1182;60317;-80
2021/09/14 10:28:46;;;;;;;8.10;5.30;;;;;;;33.31;24.63;97545.65;116142;1184;71368;-80
2021/09/14 10:31:20;;;;;;;5.70;4.30;;;;;;;33.43;25.32;97545.48;115966;1184;69244;-79
2021/09/14 10:34:07;;;;;;;6.50;4.00;;;;;;;33.70;24.95;97544.80;116181;1179;69268;-79
2021/09/14 10:36:40;;;;;;;7.80;4.70;;;;;;;33.21;25.01;97540.75;116139;1181;60378;-81
2021/09/14 10:39:24;;;;;;;7.10;4.70;;;;;;;32.60;26.67;97539.21;116172;1183;60333;-72
2021/09/14 10:41:53;;;;;;;9.00;5.00;;;;;;;32.32;27.38;97534.18;116259;1183;71426;-81
2021/09/14 10:44:31;;;;;;;8.60;5.20;;;;;;;32.74;27.18;97534.95;116212;1183;68727;-79
2021/09/14 10:47:14;;;;;;;7.00;4.50;;;;;;;33.38;26.58;97532.30;116083;1181;69241;-80
2021/09/14 10:49:52;;;;;;;9.00;5.10;;;;;;;33.63;25.67;97535.06;116158;1182;60297;-72
2021/09/14 10:52:31;;;;;;;8.20;4.80;;;;;;;34.08;24.45;97534.85;116215;1184;60332;-76
2021/09/14 10:55:18;;;;;;;6.80;5.10;;;;;;;34.06;24.62;97535.48;116061;1181;72018;-77
2021/09/14 10:57:51;;;;;;;11.30;5.60;;;;;;;34.14;24.66;97531.30;116257;1184;69119;-80
2021/09/14 11:00:29;;;;;;;8.90;5.10;;;;;;;33.33;24.77;97526.19;116195;1183;69243;-75
2021/09/14 11:03:00;;;;;;;7.70;5.10;;;;;;;33.85;24.13;97527.33;116135;1184;60320;-80
2021/09/14 11:05:32;;;;;;;6.20;4.70;;;;;;;34.26;24.88;97526.92;116229;1182;60353;-80
2021/09/14 11:08:04;;;;;;;10.80;5.30;;;;;;;34.76;24.56;97527.13;116295;1184;72130;-81
2021/09/14 11:10:35;;;;;;;8.30;5.50;;;;;;;35.06;24.18;97524.33;116249;1183;69151;-82
2021/09/14 11:13:06;;;;;;;7.00;5.20;;;;;;;34.61;24.48;97524.31;116233;1184;68564;-78
2021/09/14 11:15:35;;;;;;;10.90;6.10;;;;;;;34.27;25.32;97519.52;116205;1183;60357;-81
2021/09/14 11:18:04;;;;;;;9.00;5.70;;;;;;;34.64;23.82;97520.04;116265;1182;60358;-79
2021/09/14 11:20:36;;;;;;;8.50;5.20;;;;;;;34.02;24.27;97517.70;116196;1184;72204;-76
2021/09/14 11:23:05;;;;;;;9.30;5.80;;;;;;;34.05;25.10;97516.56;116176;1182;69047;-80
2021/09/14 11:25:34;;;;;;;8.20;5.60;;;;;;;34.61;24.11;97512.92;116145;1181;68718;-80
2021/09/14 11:28:08;;;;;;;8.00;5.00;;;;;;;34.97;23.18;97512.61;116262;1180;60332;-79
2021/09/14 11:30:53;;;;;;;10.90;5.70;;;;;;;35.27;23.06;97509.34;116251;1183;60414;-76
2021/09/14 11:33:24;;;;;;;9.80;6.30;;;;;;;35.60;23.28;97505.73;116260;1183;72193;-74
2021/09/14 11:36:01;;;;;;;9.60;6.50;;;;;;;36.03;23.23;97506.75;116316;1183;69218;-79
2021/09/14 11:38:30;;;;;;;9.70;5.60;;;;;;;35.26;24.03;97510.29;116119;1184;68755;-79
2021/09/14 11:41:01;;;;;;;14.30;7.10;;;;;;;35.17;24.14;97510.22;116263;1179;60421;-79
2021/09/14 11:43:34;;;;;;;10.20;6.00;;;;;;;35.43;24.39;97507.19;116302;1179;60345;-79
2021/09/14 11:46:17;;;;;;;12.00;7.10;;;;;;;35.73;23.02;97504.87;116285;1183;71484;-80
2021/09/14 11:48:54;;;;;;;15.30;6.60;;;;;;;35.56;22.80;97505.86;116276;1183;68444;-80
2021/09/14 11:51:23;;;;;;;9.70;6.70;;;;;;;35.20;22.76;97508.38;116261;1183;68535;-80
2021/09/14 11:53:53;;;;;;;10.20;6.40;;;;;;;34.52;23.31;97509.48;116240;1182;60311;-81
2021/09/14 11:56:27;;;;;;;13.50;7.20;;;;;;;34.77;23.83;97505.52;116235;1183;60346;-77
2021/09/14 11:58:56;;;;;;;11.30;6.40;;;;;;;34.32;23.55;97503.52;116146;1183;72397;-79
2021/09/14 12:01:32;;;;;;;15.20;7.60;;;;;;;33.87;25.11;97499.61;116289;1183;69195;-81
2021/09/14 12:04:01;;;;;;;12.80;7.80;;;;;;;34.04;24.00;97496.77;116184;1184;69272;-81
2021/09/14 12:06:36;;;;;;;16.60;7.20;;;;;;;33.34;25.07;97494.86;116205;1184;60345;-74
2021/09/14 12:09:09;;;;;;;11.90;6.80;;;;;;;32.37;25.97;97492.73;116114;1184;60408;-73
2021/09/14 12:11:42;;;;;;;13.40;6.30;;;;;;;32.27;27.47;97487.92;116234;1184;72257;-78
2021/09/14 12:14:18;;;;;;;7.80;6.00;;;;;;;33.20;27.02;97488.16;116241;1179;68610;-75
2021/09/14 12:16:52;;;;;;;10.40;6.40;;;;;;;33.06;26.37;97484.95;116206;1183;69416;-75
2021/09/14 12:19:21;;;;;;;9.60;6.50;;;;;;;32.28;27.15;97485.99;116266;1182;60298;-72
2021/09/14 12:21:51;;;;;;;10.70;6.40;;;;;;;32.11;27.38;97483.08;116243;1183;60388;-80
2021/09/14 12:24:22;;;;;;;10.00;6.70;;;;;;;32.22;27.33;97475.27;116280;1183;71453;-77
2021/09/14 12:26:51;;;;;;;10.40;6.20;;;;;;;32.58;26.80;97476.16;116254;1184;68975;-80
2021/09/14 12:29:21;;;;;;;11.50;6.40;;;;;;;32.68;26.86;97467.94;116246;1184;68588;-79
2021/09/14 12:31:50;;;;;;;10.00;6.30;;;;;;;32.92;26.35;97466.20;116273;1184;60707;-75